Center Point, Arkansas
Current Conditions -  °F | °C
As of 1:15 AM on Sunday 26 Oct 2014 (Local Time) from KSGT Reporting Station
Clear Clear  
Wind Chill: 64°   Ceiling: Unl
Heat Index: 64°   Visibility: 7mi
Dew Point: 63°   Wind: 7mph
Humidity: 94%   Direction: 190°S
Pressure: 30.02"   Gusts: NA
Location:  34.7916°N, 91.5681°W
Report Text: KSGT 260615Z AUTO 19006KT 7SM CLR 18/17 A3002 RMK AO1
Loading
Personal Weather Stations






























Interactive Weather Map
Tropical Storm Tracking
New forecast layout! Learn more

10-Day Weather Forecast

Advertisements
Track Severe Weather on mobile